Bookmark and Share
Track history (hours):
 

Naikai2

Last reported at 2014-Apr-23 05:33 UTC. Time now 2014-Apr-24 02:14 UTC.
Position N 34°38' E 135°10'.

Length 28 m; draft 2.2 m.

Type: Other ship. MMSI: 431000283.

NotesDate/timePositionNaut miles runAvg speedWind from/ knotsBaromVisibWave heightAir tempDewpointWater temp
2014-Apr-23 05:33N 34°38' E 135°10'9 9.4
2014-Apr-23 04:33N 34°37' E 134°58'2 2.1
2014-Apr-23 03:33N 34°36' E 135°01'0 0.0
2014-Apr-23 02:33N 34°36' E 135°01'0 0.0
2014-Apr-23 01:33N 34°36' E 135°01'0 0.0
2014-Apr-23 00:33N 34°36' E 135°01'0 0.0
2014-Apr-22 23:33N 34°36' E 135°01'0 0.0
2014-Apr-22 22:33N 34°36' E 135°01'0 0.0
2014-Apr-22 21:33N 34°36' E 135°01'0 0.0
2014-Apr-22 20:33N 34°36' E 135°01'0 0.0
2014-Apr-22 19:33N 34°36' E 135°01'3 3.0
2014-Apr-22 18:33N 34°36' E 135°04'6 5.7
2014-Apr-22 17:33N 34°39' E 135°10'1 0.1
2014-Apr-22 08:33N 34°39' E 135°10'1414.1
2014-Apr-22 07:34N 34°33' E 135°26'5 4.1
2014-Apr-22 06:24N 34°33' E 135°20'8 9.0
2014-Apr-22 05:33N 34°37' E 135°12'3 2.7
2014-Apr-22 04:33N 34°39' E 135°10'0 0.0
2014-Apr-22 03:33N 34°39' E 135°10'0 0.0
2014-Apr-21 20:15N 34°39' E 135°10'810.5
2014-Apr-21 19:30N 34°38' E 135°00'5 4.9
2014-Apr-21 18:33N 34°35' E 135°05'4 4.1
2014-Apr-21 17:34N 34°37' E 135°10'2 2.2
2014-Apr-21 16:33N 34°39' E 135°10'0 0.0
2014-Apr-21 06:26N 34°39' E 135°10'1314.4
2014-Apr-21 05:33N 34°27' E 135°03'3 1.6
2014-Apr-21 03:33N 34°27' E 135°07'1413.8
2014-Apr-21 02:33N 34°33' E 135°21'2 1.9
2014-Apr-21 01:33N 34°35' E 135°19'9 9.0
2014-Apr-21 00:33N 34°39' E 135°10'0 0.0
2014-Apr-20 23:33N 34°39' E 135°10'0 0.0
2014-Apr-20 03:28N 34°39' E 135°10'1213.1
2014-Apr-20 02:32N 34°34' E 135°23'5 4.6
2014-Apr-20 01:32N 34°33' E 135°18'1111.6
2014-Apr-20 00:33N 34°26' E 135°07'1514.7
2014-Apr-19 23:33N 34°12' E 134°60'8 8.4
2014-Apr-19 22:33N 34°21' E 134°60'1514.7
2014-Apr-19 21:33N 34°34' E 135°07'6 5.7
2014-Apr-19 20:33N 34°39' E 135°10'3 0.1
2014-Apr-18 20:33N 34°37' E 135°07'5 4.8
2014-Apr-18 19:34N 34°37' E 135°01'6 6.4
2014-Apr-18 18:33N 34°37' E 135°09'2 2.4
2014-Apr-18 17:33N 34°39' E 135°10'0 0.0
2014-Apr-18 03:12N 34°39' E 135°10'1 2.0
2014-Apr-18 02:34N 34°40' E 135°11'1312.6
2014-Apr-18 01:33N 34°34' E 135°24'3 3.0
2014-Apr-18 00:33N 34°33' E 135°20'8 7.5
2014-Apr-17 23:33N 34°37' E 135°12'7 2.4
2014-Apr-17 20:33N 34°37' E 135°03'2 1.9
2014-Apr-17 19:33N 34°37' E 135°01'6 6.0
2014-Apr-17 18:33N 34°36' E 135°08'4 3.8
2014-Apr-17 17:33N 34°39' E 135°10'0 0.0
2014-Apr-17 09:24N 34°39' E 135°10'1314.5
2014-Apr-17 08:33N 34°28' E 135°03'1414.2
2014-Apr-17 07:33N 34°14' E 134°57'1313.3
2014-Apr-17 06:34N 34°25' E 135°06'1313.2
2014-Apr-17 05:33N 34°33' E 135°19'5 4.7
2014-Apr-17 04:33N 34°33' E 135°25'1010.0
2014-Apr-17 03:33N 34°37' E 135°14'4 0.5
2014-Apr-16 19:33N 34°38' E 135°09'9 8.6
2014-Apr-16 18:33N 34°37' E 134°59'9 8.6
2014-Apr-16 17:33N 34°37' E 135°09'2 2.2
2014-Apr-16 16:33N 34°39' E 135°10'1 0.1
2014-Apr-16 02:33N 34°40' E 135°11'8 7.5
2014-Apr-16 01:33N 34°37' E 135°20'4 3.5
2014-Apr-16 00:31N 34°33' E 135°22'9 9.9
2014-Apr-15 23:34N 34°29' E 135°12'1513.1
2014-Apr-15 22:23N 34°18' E 134°59'6 6.5
2014-Apr-15 21:32N 34°12' E 135°01'1111.9
2014-Apr-15 20:33N 34°24' E 135°01'1514.6
2014-Apr-15 19:33N 34°37' E 135°09'3 2.5
2014-Apr-15 18:33N 34°39' E 135°10'6 0.1
2014-Apr-13 22:33N 34°38' E 135°03'0 0.0
2014-Apr-13 21:33N 34°38' E 135°03'0 0.0
2014-Apr-13 20:33N 34°38' E 135°03'1 1.0
2014-Apr-13 19:33N 34°37' E 135°02'6 6.0
2014-Apr-13 18:33N 34°38' E 135°09'2 1.6
2014-Apr-13 17:34N 34°39' E 135°10'  

Dump ship's entire track history

sailing weather and tide predictions

Naikai2 — JD2433 — position and weather